createdAt,value
2023-05-13T00:01:11.383Z,46.92
2023-05-13T00:06:16.566Z,46.74
2023-05-13T00:11:21.464Z,46.25
2023-05-13T00:16:29.890Z,45.89
2023-05-13T00:21:35.224Z,45.71
2023-05-13T00:26:40.173Z,44.88
2023-05-13T00:31:46.198Z,44.49
2023-05-13T00:36:50.980Z,44.37
2023-05-13T00:41:55.819Z,43.63
2023-05-13T00:47:01.105Z,43.78
2023-05-13T00:52:06.811Z,43.72
2023-05-13T00:57:11.870Z,43.55
2023-05-13T01:02:31.951Z,44.10
2023-05-13T01:07:59.203Z,43.83
2023-05-13T01:13:11.141Z,43.42
2023-05-13T01:18:40.548Z,43.59
2023-05-13T01:23:45.388Z,42.58
2023-05-13T01:28:50.821Z,42.40
2023-05-13T01:33:56.227Z,42.24
2023-05-13T01:39:02.404Z,42.32
2023-05-13T01:44:08.724Z,41.34
2023-05-13T01:49:13.855Z,42.09
2023-05-13T01:54:18.988Z,41.06
2023-05-13T01:59:30.021Z,41.33
2023-05-13T02:04:35.101Z,41.24
2023-05-13T02:09:40.966Z,40.91
2023-05-13T02:14:46.135Z,39.82
2023-05-13T02:19:51.383Z,41.49
2023-05-13T02:24:55.650Z,41.10
2023-05-13T02:30:01.811Z,39.35
2023-05-13T02:35:07.346Z,40.23
2023-05-13T02:40:13.074Z,39.21
2023-05-13T02:45:17.457Z,41.05
2023-05-13T02:50:28.264Z,37.84
2023-05-13T02:55:34.534Z,35.81
2023-05-13T03:00:39.685Z,36.99
2023-05-13T03:05:45.914Z,35.64
2023-05-13T03:10:50.870Z,35.13
2023-05-13T03:15:55.873Z,32.61
2023-05-13T03:21:01.109Z,33.00
2023-05-13T03:26:05.785Z,36.36
2023-05-13T03:31:10.557Z,34.94
2023-05-13T03:36:17.546Z,35.21
2023-05-13T03:41:22.882Z,32.23
2023-05-13T03:46:31.352Z,33.16
2023-05-13T03:51:36.494Z,33.51
2023-05-13T03:56:41.592Z,31.40
2023-05-13T04:01:45.976Z,32.14
2023-05-13T04:06:50.785Z,32.58
2023-05-13T04:11:55.884Z,33.03
2023-05-13T04:17:01.086Z,32.81
2023-05-13T04:22:06.289Z,31.47
2023-05-13T04:27:11.219Z,30.64
2023-05-13T04:32:19.131Z,30.87
2023-05-13T04:37:24.246Z,29.23
2023-05-13T04:42:32.630Z,31.02
2023-05-13T04:47:39.451Z,31.31
2023-05-13T04:52:45.906Z,30.75
2023-05-13T04:57:51.977Z,30.03
2023-05-13T05:02:58.005Z,30.34
2023-05-13T05:08:04.441Z,27.91
2023-05-13T05:13:10.750Z,29.30
2023-05-13T05:18:16.759Z,27.26
2023-05-13T05:23:25.373Z,29.52
2023-05-13T05:28:31.433Z,28.39
2023-05-13T05:33:37.656Z,29.14
2023-05-13T05:38:44.099Z,28.74
2023-05-13T05:43:49.715Z,27.94
2023-05-13T05:48:56.744Z,28.85
2023-05-13T05:54:01.970Z,29.20
2023-05-13T05:59:09.316Z,25.77
2023-05-13T06:04:14.514Z,26.15
2023-05-13T06:09:19.557Z,25.83
2023-05-13T06:14:24.515Z,27.70
2023-05-13T06:19:35.018Z,27.91
2023-05-13T06:24:43.887Z,28.04
2023-05-13T06:29:49.043Z,27.01
2023-05-13T06:34:55.799Z,26.45
2023-05-13T06:40:02.307Z,25.13
2023-05-13T06:45:09.666Z,22.79
2023-05-13T06:50:15.964Z,25.11
2023-05-13T06:55:21.023Z,25.22
2023-05-13T07:00:26.353Z,26.73
2023-05-13T07:05:33.748Z,25.73
2023-05-13T07:10:38.840Z,26.85
2023-05-13T07:15:43.954Z,26.58
2023-05-13T07:20:49.013Z,25.96
2023-05-13T07:25:54.246Z,26.10
2023-05-13T07:31:00.427Z,26.09
2023-05-13T07:36:07.158Z,25.23
2023-05-13T07:41:12.210Z,26.42
2023-05-13T07:46:17.840Z,25.36
2023-05-13T07:51:22.852Z,26.26
2023-05-13T07:56:27.925Z,25.51
2023-05-13T08:01:33.255Z,25.72
2023-05-13T08:06:38.272Z,26.74
2023-05-13T08:11:43.164Z,26.29
2023-05-13T08:16:48.259Z,25.58
2023-05-13T08:21:53.115Z,26.33
2023-05-13T08:26:58.388Z,24.75
2023-05-13T08:32:03.347Z,27.00
2023-05-13T08:37:08.337Z,25.78
2023-05-13T08:42:16.469Z,26.53
2023-05-13T08:47:54.920Z,29.20
2023-05-13T08:53:03.174Z,28.53
2023-05-13T08:58:08.546Z,27.03
2023-05-13T09:03:14.764Z,27.29
2023-05-13T09:08:19.695Z,26.92
2023-05-13T09:13:24.702Z,27.28
2023-05-13T09:18:35.953Z,28.90
2023-05-13T09:23:41.082Z,27.84
2023-05-13T09:28:49.117Z,27.98
2023-05-13T09:33:59.307Z,29.05
2023-05-13T09:39:05.909Z,28.16
2023-05-13T09:44:13.922Z,29.47
2023-05-13T09:49:19.031Z,28.29
2023-05-13T09:54:23.732Z,27.79
2023-05-13T09:59:32.072Z,28.33
2023-05-13T10:04:37.052Z,28.62
2023-05-13T10:09:46.152Z,29.10
2023-05-13T10:14:56.560Z,28.81
2023-05-13T10:20:03.587Z,29.19
2023-05-13T10:25:09.915Z,28.48
2023-05-13T10:30:17.195Z,28.82
2023-05-13T10:35:24.515Z,28.00
2023-05-13T10:40:47.738Z,30.27
2023-05-13T10:46:15.568Z,29.92
2023-05-13T10:51:25.965Z,29.93
2023-05-13T10:56:31.225Z,28.71
2023-05-13T11:01:47.270Z,29.97
2023-05-13T11:06:54.467Z,29.58
2023-05-13T11:12:05.457Z,28.75
2023-05-13T11:17:14.769Z,29.90
2023-05-13T11:22:25.460Z,29.40
2023-05-13T11:27:39.706Z,30.47
2023-05-13T11:32:53.745Z,30.53
2023-05-13T11:38:00.399Z,30.19
2023-05-13T11:43:09.175Z,29.65
2023-05-13T11:48:25.119Z,30.55
2023-05-13T11:53:30.068Z,30.58
2023-05-13T11:58:36.170Z,30.60
2023-05-13T12:03:41.130Z,30.16
2023-05-13T12:08:47.118Z,30.06
2023-05-13T12:13:52.360Z,30.36
2023-05-13T12:19:03.487Z,30.49
2023-05-13T12:24:24.593Z,31.12
2023-05-13T12:29:31.331Z,30.84
2023-05-13T12:34:37.508Z,31.27
2023-05-13T12:39:44.062Z,31.07
2023-05-13T12:44:49.593Z,30.96
2023-05-13T12:50:00.102Z,31.77
2023-05-13T12:55:05.377Z,31.70
2023-05-13T13:00:14.997Z,31.15
2023-05-13T13:05:20.213Z,32.29
2023-05-13T13:10:25.191Z,32.16
2023-05-13T13:15:31.215Z,32.05
2023-05-13T13:20:36.183Z,32.02
2023-05-13T13:25:41.507Z,32.47
2023-05-13T13:30:49.811Z,32.91
2023-05-13T13:35:56.716Z,32.97
2023-05-13T13:41:01.724Z,33.22
2023-05-13T13:46:07.043Z,33.88
2023-05-13T13:51:12.003Z,34.15
2023-05-13T13:56:16.927Z,34.01
2023-05-13T14:01:21.850Z,34.08
2023-05-13T14:06:27.092Z,34.39
2023-05-13T14:11:36.568Z,34.17
2023-05-13T14:16:42.106Z,33.93
2023-05-13T14:21:50.290Z,33.56
2023-05-13T14:26:57.190Z,34.38
2023-05-13T14:32:04.456Z,34.58
2023-05-13T14:37:10.009Z,34.19
2023-05-13T14:42:15.086Z,34.22
2023-05-13T14:47:20.153Z,34.23
2023-05-13T14:52:26.393Z,34.16
2023-05-13T14:57:31.450Z,34.32
2023-05-13T15:02:36.505Z,34.63
2023-05-13T15:07:42.055Z,34.87
2023-05-13T15:12:47.514Z,34.67
2023-05-13T15:17:52.328Z,34.85
2023-05-13T15:22:59.170Z,34.60
2023-05-13T15:28:04.864Z,34.95
2023-05-13T15:33:10.620Z,35.40
2023-05-13T15:38:15.681Z,35.44
2023-05-13T15:43:20.780Z,35.25
2023-05-13T15:48:26.240Z,35.57
2023-05-13T15:53:31.619Z,35.80
2023-05-13T15:58:36.757Z,36.17
2023-05-13T16:03:41.866Z,36.31
2023-05-13T16:08:47.114Z,36.50
2023-05-13T16:13:52.220Z,36.69
2023-05-13T16:18:57.048Z,37.07
2023-05-13T16:24:02.485Z,36.85
2023-05-13T16:29:07.433Z,37.07
2023-05-13T16:34:12.453Z,37.17
2023-05-13T16:39:16.788Z,37.35
2023-05-13T16:44:21.703Z,37.54
2023-05-13T16:49:26.871Z,37.68
2023-05-13T16:54:32.429Z,37.58
2023-05-13T16:59:37.438Z,37.70
2023-05-13T17:04:42.282Z,37.79
2023-05-13T17:09:47.335Z,37.44
2023-05-13T17:14:53.129Z,38.11
2023-05-13T17:19:58.890Z,38.98
2023-05-13T17:25:03.787Z,39.61
2023-05-13T17:30:09.657Z,39.49
2023-05-13T17:35:14.707Z,39.47
2023-05-13T17:40:19.779Z,39.80
2023-05-13T17:45:25.548Z,40.14
2023-05-13T17:50:32.881Z,40.22
2023-05-13T17:55:38.214Z,40.32
2023-05-13T18:00:43.098Z,40.33
2023-05-13T18:05:48.236Z,40.58
2023-05-13T18:10:53.092Z,40.62
2023-05-13T18:15:58.073Z,41.15
2023-05-13T18:21:03.345Z,41.01
2023-05-13T18:26:08.423Z,40.47
2023-05-13T18:31:14.212Z,40.93
2023-05-13T18:36:19.225Z,41.11
2023-05-13T18:41:24.175Z,41.19
2023-05-13T18:46:29.397Z,41.61
2023-05-13T18:51:35.304Z,42.59
2023-05-13T18:56:40.209Z,41.21
2023-05-13T19:01:45.388Z,41.44
2023-05-13T19:06:50.658Z,41.47
2023-05-13T19:11:55.744Z,41.74
2023-05-13T19:17:00.772Z,41.30
2023-05-13T19:22:05.949Z,41.74
2023-05-13T19:27:11.503Z,41.88
2023-05-13T19:32:16.415Z,41.87
2023-05-13T19:37:21.393Z,41.62
2023-05-13T19:42:26.658Z,41.74
2023-05-13T19:47:31.880Z,41.80
2023-05-13T19:52:36.824Z,42.34
2023-05-13T19:57:43.450Z,42.13
2023-05-13T20:02:48.234Z,42.64
2023-05-13T20:07:53.023Z,42.62
2023-05-13T20:12:57.893Z,43.11
2023-05-13T20:18:02.950Z,42.88
2023-05-13T20:23:08.075Z,42.85
2023-05-13T20:28:13.049Z,43.24
2023-05-13T20:33:18.130Z,42.87
2023-05-13T20:38:23.823Z,42.83
2023-05-13T20:43:28.761Z,43.13
2023-05-13T20:48:36.171Z,43.29
2023-05-13T20:53:41.465Z,43.25
2023-05-13T20:58:45.857Z,43.46
2023-05-13T21:03:50.355Z,43.49
2023-05-13T21:08:55.528Z,43.83
2023-05-13T21:14:00.787Z,43.38
2023-05-13T21:19:05.820Z,43.48
2023-05-13T21:24:11.015Z,43.96
2023-05-13T21:29:17.379Z,44.06
2023-05-13T21:34:24.041Z,44.07
2023-05-13T21:39:29.175Z,44.74
2023-05-13T21:44:34.034Z,44.51
2023-05-13T21:49:38.893Z,44.81
2023-05-13T21:54:43.835Z,45.31
2023-05-13T21:59:48.732Z,44.81
2023-05-13T22:04:53.855Z,44.54
2023-05-13T22:09:59.003Z,44.88
2023-05-13T22:15:03.988Z,44.92
2023-05-13T22:20:09.740Z,44.35
2023-05-13T22:25:15.706Z,44.83
2023-05-13T22:30:21.065Z,44.58
2023-05-13T22:35:26.101Z,44.68
2023-05-13T22:40:30.985Z,44.88
2023-05-13T22:45:35.955Z,45.07
2023-05-13T22:50:41.604Z,44.49
2023-05-13T22:55:46.856Z,44.73
2023-05-13T23:00:52.201Z,44.79
2023-05-13T23:05:58.258Z,44.50
2023-05-13T23:11:02.598Z,42.28
2023-05-13T23:16:09.274Z,44.11
2023-05-13T23:21:14.277Z,43.74
2023-05-13T23:26:19.158Z,44.20
2023-05-13T23:31:24.038Z,43.94
2023-05-13T23:36:29.424Z,43.76
2023-05-13T23:41:36.205Z,43.79
2023-05-13T23:46:40.623Z,43.50
2023-05-13T23:51:45.609Z,43.43
2023-05-13T23:56:50.631Z,43.74
